Time;durP1;ratioP1;P1;durP2;ratioP2;P2;SDS_P1;SDS_P2;PMS_P1;PMS_P2;Temp;Humidity;BMP_temperature;BMP_pressure;BME280_temperature;BME280_humidity;BME280_pressure;Samples;Min_cycle;Max_cycle;Signal;HPM_P1;HPM_P2
2022/07/25 00:00:20;;;;;;;4.10;1.53;;;;;;;28.89;42.57;95123.03;5016654;28;20737;-69
2022/07/25 00:02:47;;;;;;;0.93;0.93;;;;;;;28.77;42.52;95114.41;5040509;28;20188;-70
2022/07/25 00:05:15;;;;;;;1.70;1.53;;;;;;;29.05;42.12;95127.50;5033312;28;20204;-71
2022/07/25 00:07:42;;;;;;;6.13;2.60;;;;;;;29.18;41.79;95123.44;5023717;28;20655;-71
2022/07/25 00:10:09;;;;;;;14.70;1.27;;;;;;;29.17;41.45;95111.88;5017770;28;20259;-72
2022/07/25 00:12:36;;;;;;;1.37;0.97;;;;;;;29.21;41.47;95125.41;5030259;28;20217;-71
2022/07/25 00:15:04;;;;;;;1.87;1.63;;;;;;;29.43;41.34;95119.09;5029724;28;20733;-71
2022/07/25 00:17:31;;;;;;;0.60;0.60;;;;;;;29.67;40.58;95115.88;5018404;28;20260;-72
2022/07/25 00:19:58;;;;;;;0.60;0.60;;;;;;;29.77;40.48;95102.50;5042804;28;20201;-71
2022/07/25 00:22:24;;;;;;;1.13;0.93;;;;;;;29.86;40.44;95110.28;5020440;28;20198;-72
2022/07/25 00:24:51;;;;;;;0.73;0.73;;;;;;;29.98;39.93;95110.03;5024214;28;20707;-71
2022/07/25 00:27:18;;;;;;;0.40;0.40;;;;;;;30.03;40.10;95100.78;5027408;28;20227;-72
2022/07/25 00:29:45;;;;;;;1.87;1.77;;;;;;;30.11;40.02;95094.31;5021499;28;20197;-71
2022/07/25 00:32:13;;;;;;;1.17;1.07;;;;;;;29.89;40.45;95093.34;5029520;28;20758;-72
2022/07/25 00:34:40;;;;;;;0.93;0.93;;;;;;;29.98;40.13;95091.13;5016490;28;20703;-71
2022/07/25 00:37:07;;;;;;;1.83;1.17;;;;;;;30.07;39.83;95082.69;5024005;28;20642;-72
2022/07/25 00:39:34;;;;;;;0.63;0.63;;;;;;;30.19;39.40;95080.47;5032834;28;20200;-72
2022/07/25 00:42:02;;;;;;;1.33;1.23;;;;;;;30.15;39.74;95079.66;5021547;28;20246;-70
2022/07/25 00:44:31;;;;;;;1.00;1.00;;;;;;;29.90;40.17;95084.09;5039373;28;20204;-71
2022/07/25 00:46:58;;;;;;;3.30;1.77;;;;;;;30.08;40.20;95079.59;5039832;28;20188;-71
2022/07/25 00:49:26;;;;;;;0.73;0.73;;;;;;;30.20;39.79;95076.59;5027487;28;20592;-71
2022/07/25 00:51:53;;;;;;;2.20;1.60;;;;;;;30.27;39.75;95086.72;5035239;28;20687;-72
2022/07/25 00:54:21;;;;;;;1.10;1.10;;;;;;;30.18;39.71;95078.94;5049607;28;20242;-69
2022/07/25 00:56:49;;;;;;;1.30;1.20;;;;;;;29.88;40.18;95081.78;5019770;28;20865;-71
2022/07/25 00:59:16;;;;;;;1.80;1.20;;;;;;;29.87;40.59;95084.84;5038030;28;20570;-71
2022/07/25 01:01:46;;;;;;;2.03;0.93;;;;;;;30.06;40.35;95090.00;5020720;28;20201;-71
2022/07/25 01:04:15;;;;;;;2.37;1.53;;;;;;;30.08;40.26;95095.81;5022861;28;20259;-72
2022/07/25 01:06:42;;;;;;;1.47;0.87;;;;;;;29.28;41.83;95087.69;5009906;28;20590;-72
2022/07/25 01:09:09;;;;;;;2.20;1.47;;;;;;;29.22;42.00;95087.25;5016247;28;20263;-71
2022/07/25 01:11:37;;;;;;;1.07;1.07;;;;;;;29.35;41.73;95090.47;5009473;28;20210;-72
2022/07/25 01:14:04;;;;;;;1.27;0.97;;;;;;;29.24;41.72;95089.56;5032697;28;20196;-70
2022/07/25 01:16:31;;;;;;;1.10;1.03;;;;;;;29.48;41.42;95084.44;5042174;28;20252;-69
2022/07/25 01:18:58;;;;;;;2.30;1.37;;;;;;;29.15;42.13;95091.78;5031847;28;20196;-71
2022/07/25 01:21:26;;;;;;;2.43;1.80;;;;;;;29.18;41.96;95085.66;5033639;28;20208;-69
2022/07/25 01:23:53;;;;;;;3.07;2.30;;;;;;;28.81;42.97;95088.25;5029559;28;20207;-71
2022/07/25 01:26:20;;;;;;;1.73;1.63;;;;;;;28.37;43.90;95090.72;5043590;28;20201;-71
2022/07/25 01:28:46;;;;;;;5.97;2.03;;;;;;;28.07;45.00;95080.97;5049530;28;20606;-68
2022/07/25 01:31:13;;;;;;;1.13;1.10;;;;;;;28.38;44.47;95086.84;5049231;28;20270;-70
2022/07/25 01:33:40;;;;;;;1.23;1.13;;;;;;;28.46;44.50;95083.13;5025099;28;20574;-69
2022/07/25 01:36:08;;;;;;;0.90;0.90;;;;;;;28.26;44.92;95080.91;5020791;28;20652;-71
2022/07/25 01:38:34;;;;;;;1.70;1.07;;;;;;;28.43;44.37;95089.22;5040161;28;20665;-70
2022/07/25 01:41:01;;;;;;;2.63;1.43;;;;;;;28.74;43.78;95088.16;5030342;28;20208;-70
2022/07/25 01:43:28;;;;;;;1.27;1.23;;;;;;;28.83;43.19;95092.13;5034419;28;20667;-70
2022/07/25 01:45:55;;;;;;;0.80;0.80;;;;;;;29.04;42.99;95096.22;5020940;28;20965;-71
2022/07/25 01:48:22;;;;;;;0.90;0.90;;;;;;;29.01;43.50;95102.38;5032922;28;20197;-72
2022/07/25 01:50:49;;;;;;;0.63;0.63;;;;;;;28.95;43.43;95089.22;5040536;28;20292;-70
2022/07/25 01:53:17;;;;;;;2.70;1.23;;;;;;;29.15;42.95;95102.56;5025703;28;20281;-70
2022/07/25 01:55:46;;;;;;;1.47;1.37;;;;;;;29.16;42.88;95087.94;5025136;28;20296;-70
2022/07/25 01:58:13;;;;;;;2.77;1.30;;;;;;;28.86;43.19;95085.22;5027311;28;20205;-70
2022/07/25 02:00:40;;;;;;;0.80;0.80;;;;;;;28.92;43.43;95095.31;5027352;28;20671;-71
2022/07/25 02:05:52;;;;;;;1.77;1.63;;;;;;;29.48;42.30;95094.47;5051198;28;20650;-69
2022/07/25 02:08:19;;;;;;;1.03;1.00;;;;;;;29.21;42.53;95090.31;5033479;28;20619;-69
2022/07/25 02:10:46;;;;;;;0.60;0.60;;;;;;;28.98;43.21;95104.66;5026058;28;20246;-71
2022/07/25 02:13:13;;;;;;;1.27;1.17;;;;;;;28.31;44.29;95094.06;5042282;28;20241;-69
2022/07/25 02:15:40;;;;;;;0.90;0.63;;;;;;;28.50;43.91;95093.97;5034415;28;20196;-70
2022/07/25 02:18:08;;;;;;;1.17;1.07;;;;;;;28.58;43.83;95093.72;5051579;28;20733;-69
2022/07/25 02:20:35;;;;;;;0.73;0.73;;;;;;;28.42;44.14;95100.38;5052785;28;20204;-70
2022/07/25 02:23:03;;;;;;;2.20;2.00;;;;;;;28.51;44.04;95101.69;5037846;28;20620;-69
2022/07/25 02:25:30;;;;;;;1.17;1.07;;;;;;;28.37;44.28;95095.31;5051895;28;20254;-70
2022/07/25 02:27:57;;;;;;;3.90;1.03;;;;;;;28.36;44.40;95094.53;5038081;28;20271;-69
2022/07/25 02:30:25;;;;;;;1.83;1.73;;;;;;;28.13;45.21;95101.88;5038415;28;20184;-69
2022/07/25 02:32:52;;;;;;;0.70;0.70;;;;;;;28.32;44.69;95096.38;5051584;28;20224;-70
2022/07/25 02:35:19;;;;;;;1.40;1.30;;;;;;;28.35;44.62;95098.38;5019032;28;20196;-69
2022/07/25 02:37:46;;;;;;;2.10;2.00;;;;;;;27.92;45.78;95090.72;5032017;28;20201;-69
2022/07/25 02:40:13;;;;;;;1.00;1.00;;;;;;;28.05;45.54;95100.19;5043098;28;20252;-70
2022/07/25 02:42:40;;;;;;;0.87;0.87;;;;;;;28.11;45.58;95088.00;5021098;28;20228;-70
2022/07/25 02:45:07;;;;;;;2.27;1.20;;;;;;;28.05;45.83;95083.28;5046669;28;20683;-71
2022/07/25 02:47:34;;;;;;;0.47;0.47;;;;;;;28.28;45.07;95076.72;5051579;28;20655;-70
2022/07/25 02:50:01;;;;;;;1.57;1.47;;;;;;;28.43;44.76;95088.47;5024164;28;20284;-69
2022/07/25 02:52:28;;;;;;;2.40;2.30;;;;;;;28.63;44.11;95089.94;5045141;28;20213;-70
2022/07/25 02:54:54;;;;;;;1.60;1.50;;;;;;;28.22;45.12;95085.44;5030525;28;20208;-70
2022/07/25 02:57:21;;;;;;;0.77;0.77;;;;;;;28.24;45.43;95091.25;5018063;28;20235;-71
2022/07/25 02:59:48;;;;;;;3.37;1.50;;;;;;;28.38;45.18;95092.25;5031305;28;20244;-71
2022/07/25 03:02:15;;;;;;;1.00;0.97;;;;;;;28.34;45.28;95091.41;5044928;28;20734;-71
2022/07/25 03:04:41;;;;;;;1.70;1.60;;;;;;;27.72;45.55;95092.69;5020641;28;20280;-72
2022/07/25 03:07:08;;;;;;;0.80;0.80;;;;;;;27.62;45.21;95097.91;5039806;28;20210;-71
2022/07/25 03:09:35;;;;;;;0.90;0.90;;;;;;;27.68;44.91;95091.09;5014009;28;20205;-70
2022/07/25 03:12:02;;;;;;;0.67;0.67;;;;;;;28.03;44.06;95091.69;5031319;28;20220;-70
2022/07/25 03:14:29;;;;;;;0.90;0.90;;;;;;;28.14;43.33;95094.59;5044929;28;20295;-72
2022/07/25 03:16:56;;;;;;;2.23;1.20;;;;;;;27.92;44.09;95101.50;5024274;28;20190;-71
2022/07/25 03:19:23;;;;;;;1.37;1.20;;;;;;;27.80;43.84;95104.38;5038255;28;20204;-69
2022/07/25 03:21:50;;;;;;;0.50;0.50;;;;;;;27.98;43.47;95100.09;5050635;28;20851;-71
2022/07/25 03:24:17;;;;;;;0.53;0.53;;;;;;;28.12;43.06;95100.31;5050945;28;20208;-70
2022/07/25 03:26:44;;;;;;;1.97;1.73;;;;;;;28.22;42.84;95093.53;5050903;28;20342;-70
2022/07/25 03:29:12;;;;;;;1.63;0.90;;;;;;;28.28;42.58;95082.09;5051066;28;20208;-70
2022/07/25 03:31:39;;;;;;;0.30;0.30;;;;;;;28.40;42.22;95084.56;5020469;28;20957;-69
2022/07/25 03:34:06;;;;;;;1.33;1.10;;;;;;;27.88;42.77;95095.28;5022587;28;20656;-70
2022/07/25 03:36:34;;;;;;;0.83;0.83;;;;;;;27.96;42.91;95102.38;5039665;28;20267;-69
2022/07/25 03:39:01;;;;;;;1.13;0.90;;;;;;;28.07;42.98;95092.53;5030673;28;20676;-71
2022/07/25 03:41:31;;;;;;;2.77;1.10;;;;;;;28.27;42.38;95091.31;5030661;28;20236;-70
2022/07/25 03:43:58;;;;;;;1.73;1.63;;;;;;;28.22;42.33;95104.31;5038579;28;20635;-71
2022/07/25 03:46:25;;;;;;;2.07;1.67;;;;;;;28.26;42.18;95097.84;5034474;28;20257;-72
2022/07/25 03:48:52;;;;;;;0.83;0.73;;;;;;;28.50;41.59;95102.81;5048850;28;20188;-69
2022/07/25 03:51:18;;;;;;;0.80;0.80;;;;;;;28.46;41.43;95098.53;5029778;28;20225;-70
2022/07/25 03:54:00;;;;;;;1.50;1.27;;;;;;;28.54;41.17;95105.63;5041050;28;20310;-70
2022/07/25 03:56:35;;;;;;;0.93;0.77;;;;;;;28.56;40.73;95108.69;5017762;28;20309;-71
2022/07/25 03:59:10;;;;;;;0.50;0.50;;;;;;;28.73;40.38;95108.97;5018505;28;20197;-70
2022/07/25 04:01:38;;;;;;;1.40;1.03;;;;;;;27.94;41.57;95120.78;5014983;28;20190;-71
2022/07/25 04:04:05;;;;;;;7.73;1.90;;;;;;;27.76;42.31;95114.31;5009179;28;20202;-71
2022/07/25 04:06:33;;;;;;;1.50;1.40;;;;;;;28.07;41.68;95119.47;5037866;28;20204;-72
2022/07/25 04:09:00;;;;;;;1.60;1.50;;;;;;;27.62;42.46;95114.06;5010765;28;20185;-71
2022/07/25 04:11:28;;;;;;;0.70;0.70;;;;;;;27.83;42.04;95114.41;5018399;28;20222;-72
2022/07/25 04:13:56;;;;;;;0.40;0.40;;;;;;;27.91;41.81;95105.34;5050377;28;20262;-70
2022/07/25 04:16:23;;;;;;;0.73;0.73;;;;;;;27.61;42.37;95102.50;5048184;28;20676;-71
2022/07/25 04:18:54;;;;;;;2.43;2.03;;;;;;;27.53;42.35;95108.91;5039943;28;20220;-72
2022/07/25 04:21:22;;;;;;;1.03;1.00;;;;;;;27.24;42.97;95100.63;5047772;28;20204;-68
2022/07/25 04:23:49;;;;;;;0.70;0.70;;;;;;;27.61;42.20;95102.50;5018797;28;20288;-70
2022/07/25 04:26:16;;;;;;;0.87;0.87;;;;;;;27.71;42.21;95101.16;5029771;28;20251;-72
2022/07/25 04:28:43;;;;;;;1.00;0.90;;;;;;;27.48;42.04;95093.03;5030297;28;20197;-69
2022/07/25 04:31:10;;;;;;;0.63;0.63;;;;;;;27.85;41.66;95101.38;5030123;28;20193;-68
2022/07/25 04:33:38;;;;;;;1.40;1.30;;;;;;;28.39;40.57;95098.44;5043701;28;20307;-70
2022/07/25 04:36:05;;;;;;;0.90;0.90;;;;;;;28.42;40.55;95101.16;5018770;28;20616;-74
2022/07/25 04:38:33;;;;;;;1.17;0.97;;;;;;;27.94;40.84;95104.63;5029250;28;20204;-69
2022/07/25 04:41:00;;;;;;;2.30;1.60;;;;;;;27.93;41.18;95090.41;5049345;28;20667;-69
2022/07/25 04:43:27;;;;;;;0.57;0.57;;;;;;;28.25;40.53;95104.38;5021601;28;20903;-71
2022/07/25 04:45:54;;;;;;;0.50;0.50;;;;;;;28.18;39.98;95098.09;5034043;28;20198;-69
2022/07/25 04:48:21;;;;;;;0.53;0.53;;;;;;;27.74;40.83;95090.44;5024309;28;20203;-67
2022/07/25 04:50:48;;;;;;;1.63;1.53;;;;;;;27.96;40.29;95096.97;5010162;28;20259;-69
2022/07/25 04:53:15;;;;;;;2.83;2.63;;;;;;;27.89;40.47;95097.63;5022150;28;20213;-73
2022/07/25 04:55:41;;;;;;;1.63;1.53;;;;;;;27.38;41.14;95082.09;5034264;28;20221;-72
2022/07/25 04:58:08;;;;;;;1.40;1.30;;;;;;;28.02;40.02;95089.38;5010323;28;20248;-70
2022/07/25 05:00:35;;;;;;;0.80;0.80;;;;;;;27.95;40.25;95107.00;5015680;28;20193;-70
2022/07/25 05:03:02;;;;;;;2.00;1.37;;;;;;;28.23;39.90;95106.66;5029713;28;20197;-69
2022/07/25 05:05:29;;;;;;;1.83;1.17;;;;;;;28.63;39.27;95109.56;5040351;28;20201;-69
2022/07/25 05:07:58;;;;;;;1.17;1.10;;;;;;;28.40;40.13;95114.22;5016807;28;20244;-69
2022/07/25 05:10:27;;;;;;;1.23;1.13;;;;;;;28.34;40.06;95110.28;5010483;28;20210;-68
2022/07/25 05:12:55;;;;;;;0.97;0.70;;;;;;;28.31;39.59;95115.63;5037614;28;20212;-66
2022/07/25 05:15:22;;;;;;;0.93;0.77;;;;;;;28.16;39.57;95111.94;5026692;28;20200;-69
2022/07/25 05:17:49;;;;;;;1.03;1.03;;;;;;;27.59;40.39;95120.16;5037325;28;20211;-65
2022/07/25 05:20:15;;;;;;;0.53;0.53;;;;;;;27.81;40.12;95116.69;5027275;28;20206;-69
2022/07/25 05:22:42;;;;;;;0.33;0.33;;;;;;;28.07;40.02;95114.09;5026129;28;20714;-68
2022/07/25 05:25:10;;;;;;;1.13;1.13;;;;;;;28.15;39.48;95115.78;5052454;28;20203;-66
2022/07/25 05:27:38;;;;;;;0.93;0.83;;;;;;;28.50;38.95;95116.28;5052903;28;20228;-69
2022/07/25 05:30:06;;;;;;;0.50;0.50;;;;;;;28.61;38.80;95121.88;5032030;28;20706;-68
2022/07/25 05:32:32;;;;;;;4.20;3.83;;;;;;;28.98;38.52;95120.84;5023774;28;20554;-71
2022/07/25 05:34:59;;;;;;;1.10;1.07;;;;;;;28.77;38.10;95119.78;5023611;28;20256;-69
2022/07/25 05:37:26;;;;;;;0.67;0.67;;;;;;;28.28;38.83;95109.06;5053267;28;20675;-66
2022/07/25 05:39:53;;;;;;;4.53;1.17;;;;;;;28.10;39.21;95113.38;5023294;28;20201;-69
2022/07/25 05:42:20;;;;;;;0.50;0.50;;;;;;;27.58;40.32;95118.59;5037903;28;20656;-69
2022/07/25 05:44:47;;;;;;;1.10;1.00;;;;;;;28.06;39.77;95117.94;5040093;28;20193;-66
2022/07/25 05:47:14;;;;;;;1.00;1.00;;;;;;;28.68;38.60;95111.97;5046971;28;20208;-66
2022/07/25 05:49:41;;;;;;;0.87;0.87;;;;;;;28.91;38.28;95109.97;5043897;28;20258;-68
2022/07/25 05:52:08;;;;;;;1.23;1.13;;;;;;;28.70;38.71;95115.06;5052853;28;20192;-67
2022/07/25 05:54:38;;;;;;;0.60;0.60;;;;;;;28.80;38.95;95109.06;5041642;28;20675;-67
2022/07/25 05:57:05;;;;;;;0.60;0.60;;;;;;;29.07;38.20;95100.91;5023149;28;20197;-68
2022/07/25 05:59:32;;;;;;;1.77;0.80;;;;;;;28.45;38.74;95089.66;5030591;28;20201;-65
2022/07/25 06:02:01;;;;;;;0.87;0.87;;;;;;;28.98;38.56;95098.47;5012541;28;20591;-67
2022/07/25 06:04:28;;;;;;;0.80;0.80;;;;;;;29.43;37.90;95103.69;5030993;28;20679;-68
2022/07/25 06:06:55;;;;;;;2.80;1.70;;;;;;;29.35;37.61;95083.16;5038637;28;20197;-65
2022/07/25 06:09:22;;;;;;;0.67;0.67;;;;;;;29.54;38.13;95098.38;5024438;28;20194;-69
2022/07/25 06:11:50;;;;;;;1.40;1.13;;;;;;;29.29;37.62;95092.72;5038557;28;20244;-66
2022/07/25 06:14:27;;;;;;;1.13;1.03;;;;;;;29.62;37.31;95083.78;5038955;28;20266;-69
2022/07/25 06:16:55;;;;;;;0.53;0.53;;;;;;;29.37;37.36;95080.06;5019689;28;20216;-66
2022/07/25 06:19:23;;;;;;;0.40;0.40;;;;;;;29.53;36.61;95094.13;5032034;28;20205;-67
2022/07/25 06:21:50;;;;;;;0.60;0.60;;;;;;;29.41;36.78;95099.78;5024151;28;20204;-68
2022/07/25 06:24:16;;;;;;;2.43;1.00;;;;;;;29.45;37.08;95087.09;5052703;28;20201;-68
2022/07/25 06:26:43;;;;;;;0.97;0.93;;;;;;;29.60;37.07;95102.28;5037797;28;20231;-68
2022/07/25 06:29:11;;;;;;;1.17;1.00;;;;;;;29.92;36.27;95092.59;5039886;28;20292;-69
2022/07/25 06:31:38;;;;;;;0.70;0.70;;;;;;;29.72;36.96;95093.97;5034721;28;20849;-69
2022/07/25 06:34:05;;;;;;;1.10;1.00;;;;;;;29.54;36.68;95093.75;5051771;28;20228;-67
2022/07/25 06:36:33;;;;;;;1.23;1.13;;;;;;;30.19;36.32;95076.97;5051512;28;20278;-67
2022/07/25 06:39:00;;;;;;;0.83;0.60;;;;;;;29.99;35.72;95100.78;5038146;28;20198;-67
2022/07/25 06:41:27;;;;;;;2.70;0.63;;;;;;;29.92;36.18;95089.91;5038246;28;20635;-67
2022/07/25 06:43:53;;;;;;;1.30;1.20;;;;;;;29.64;36.28;95086.91;5051656;28;20209;-68
2022/07/25 06:46:20;;;;;;;0.30;0.30;;;;;;;30.06;36.16;95087.31;5053854;28;20200;-66
2022/07/25 06:48:47;;;;;;;2.93;1.80;;;;;;;30.30;36.18;95086.75;5037332;28;20663;-70
2022/07/25 06:51:14;;;;;;;0.90;0.90;;;;;;;29.89;35.95;95083.31;5042093;28;20201;-67
2022/07/25 06:53:41;;;;;;;0.60;0.60;;;;;;;29.25;36.70;95085.72;5046085;28;20217;-65
2022/07/25 06:56:08;;;;;;;0.43;0.43;;;;;;;29.76;36.62;95078.56;5030793;28;20202;-71
2022/07/25 06:58:38;;;;;;;0.80;0.80;;;;;;;29.63;36.26;95086.16;5032449;28;20276;-68
2022/07/25 07:01:05;;;;;;;0.77;0.77;;;;;;;29.48;36.24;95078.25;5051783;28;20595;-66
2022/07/25 07:03:36;;;;;;;1.53;1.43;;;;;;;30.12;35.22;95066.91;5037415;28;20665;-67
2022/07/25 07:06:08;;;;;;;0.50;0.50;;;;;;;30.06;35.52;95076.50;5034752;28;20210;-67
2022/07/25 07:08:36;;;;;;;0.73;0.73;;;;;;;30.17;35.26;95071.94;5011571;28;20692;-65
2022/07/25 07:11:04;;;;;;;0.87;0.70;;;;;;;30.62;34.54;95071.50;5040270;28;20296;-70
2022/07/25 07:13:31;;;;;;;2.33;1.17;;;;;;;30.96;34.50;95068.59;5039004;28;20307;-70
2022/07/25 07:15:58;;;;;;;0.80;0.80;;;;;;;30.74;34.22;95082.00;5025026;28;20201;-65
2022/07/25 07:18:25;;;;;;;0.73;0.73;;;;;;;30.42;34.73;95072.91;5030618;28;20775;-68
2022/07/25 07:20:52;;;;;;;0.67;0.67;;;;;;;31.01;34.61;95070.94;5042579;28;20197;-68
2022/07/25 07:23:19;;;;;;;1.70;1.20;;;;;;;30.92;34.35;95078.63;5032809;28;20249;-66
2022/07/25 07:25:46;;;;;;;0.40;0.40;;;;;;;30.73;33.84;95055.31;5041114;28;20304;-65
2022/07/25 07:28:14;;;;;;;1.60;1.03;;;;;;;31.08;34.23;95058.22;5022857;28;20713;-66
2022/07/25 07:30:42;;;;;;;5.90;2.17;;;;;;;31.14;33.69;95064.03;5034208;28;20229;-68
2022/07/25 07:33:29;;;;;;;0.53;0.53;;;;;;;30.99;33.82;95057.00;5031518;28;20205;-67
2022/07/25 07:35:56;;;;;;;0.57;0.57;;;;;;;30.93;33.80;95063.97;5031748;28;20553;-66
2022/07/25 07:38:24;;;;;;;1.30;1.07;;;;;;;31.23;34.78;95059.03;5041090;28;20200;-68
2022/07/25 07:40:52;;;;;;;0.83;0.83;;;;;;;30.50;33.57;95052.91;5038822;28;20196;-65
2022/07/25 07:43:19;;;;;;;0.87;0.80;;;;;;;30.91;33.51;95050.81;5049516;28;20565;-70
2022/07/25 07:45:50;;;;;;;1.23;1.13;;;;;;;31.25;33.28;95054.00;5018054;28;20197;-67
2022/07/25 07:48:17;;;;;;;0.63;0.63;;;;;;;30.84;32.68;95067.78;5044250;28;20232;-65
2022/07/25 07:50:44;;;;;;;1.33;1.23;;;;;;;31.39;33.29;95064.91;5039570;28;20557;-66
2022/07/25 07:53:11;;;;;;;3.30;1.03;;;;;;;30.78;32.80;95060.38;5033776;28;20755;-69
2022/07/25 07:55:44;;;;;;;1.30;1.20;;;;;;;30.53;33.16;95038.59;5026083;28;20222;-68
2022/07/25 07:58:14;;;;;;;0.67;0.67;;;;;;;30.67;33.17;95054.94;5010673;28;20210;-69
2022/07/25 08:00:44;;;;;;;0.80;0.80;;;;;;;31.48;32.76;95052.53;5010712;28;20202;-66
2022/07/25 08:03:10;;;;;;;0.43;0.43;;;;;;;32.06;32.19;95054.19;5010576;28;20209;-67
2022/07/25 08:05:41;;;;;;;0.77;0.77;;;;;;;31.77;33.20;95059.56;5029116;28;20378;-67
2022/07/25 08:08:12;;;;;;;0.97;0.97;;;;;;;31.57;31.30;95050.25;5032140;28;20258;-65
2022/07/25 08:10:47;;;;;;;2.27;1.33;;;;;;;31.92;31.95;95054.16;5033260;28;20203;-65
2022/07/25 08:13:23;;;;;;;1.03;1.03;;;;;;;31.85;32.02;95060.34;5035775;28;20590;-65
2022/07/25 08:15:53;;;;;;;0.93;0.87;;;;;;;32.57;31.78;95052.56;5050012;28;20230;-68
2022/07/25 08:18:20;;;;;;;1.57;1.10;;;;;;;32.68;30.21;95053.31;5012607;28;20201;-66
2022/07/25 08:20:47;;;;;;;0.93;0.93;;;;;;;31.69;30.78;95047.16;5032470;28;20193;-69
2022/07/25 08:23:15;;;;;;;0.50;0.50;;;;;;;31.62;31.01;95052.56;5035424;28;20196;-65
2022/07/25 08:25:43;;;;;;;0.70;0.70;;;;;;;32.01;30.28;95047.19;5031029;28;20283;-67
2022/07/25 08:28:10;;;;;;;0.87;0.83;;;;;;;32.13;30.48;95063.09;5041232;28;20251;-68
2022/07/25 08:30:38;;;;;;;1.17;1.13;;;;;;;32.46;31.30;95051.81;5049645;28;20634;-65
2022/07/25 08:33:09;;;;;;;0.63;0.63;;;;;;;31.96;30.41;95050.31;5021689;28;20275;-69
2022/07/25 08:35:36;;;;;;;0.83;0.83;;;;;;;32.17;31.60;95042.16;5042941;28;20203;-67
2022/07/25 08:38:04;;;;;;;1.53;1.07;;;;;;;32.38;30.59;95047.56;5042995;28;20254;-66
2022/07/25 08:40:32;;;;;;;2.13;1.33;;;;;;;32.75;30.77;95053.31;5035583;28;20192;-66
2022/07/25 08:42:59;;;;;;;0.80;0.80;;;;;;;32.81;30.68;95056.38;5049889;28;20199;-65
2022/07/25 08:45:27;;;;;;;0.83;0.83;;;;;;;32.60;29.75;95056.44;5045777;28;20213;-71
2022/07/25 08:47:55;;;;;;;1.93;1.10;;;;;;;32.20;30.03;95052.22;5019749;28;20198;-65
2022/07/25 08:50:25;;;;;;;1.13;1.10;;;;;;;32.34;30.32;95038.66;5040383;28;20200;-66
2022/07/25 08:52:52;;;;;;;0.80;0.80;;;;;;;32.59;29.96;95044.81;5020072;28;20198;-66
2022/07/25 08:55:39;;;;;;;0.80;0.80;;;;;;;32.71;29.91;95046.34;5009854;28;20277;-66
2022/07/25 08:58:06;;;;;;;0.53;0.53;;;;;;;33.26;29.32;95035.66;5035304;28;20269;-68
2022/07/25 09:00:32;;;;;;;1.63;0.90;;;;;;;33.10;29.01;95040.78;5044443;28;20259;-65
2022/07/25 09:03:01;;;;;;;2.50;1.40;;;;;;;33.09;30.93;95023.72;5018404;28;20664;-66
2022/07/25 09:05:30;;;;;;;1.23;1.17;;;;;;;33.04;29.29;95034.22;5044585;28;20279;-65
2022/07/25 09:08:09;;;;;;;0.70;0.70;;;;;;;31.99;30.19;95044.09;5029576;28;20206;-65
2022/07/25 09:10:38;;;;;;;1.43;0.77;;;;;;;32.53;30.26;95043.69;5020909;28;20231;-66
2022/07/25 09:13:12;;;;;;;0.93;0.93;;;;;;;33.00;30.64;95042.38;5026002;28;20222;-69
2022/07/25 09:15:53;;;;;;;1.13;1.13;;;;;;;33.10;29.79;95032.66;5020170;28;20230;-65
2022/07/25 09:18:25;;;;;;;2.73;1.80;;;;;;;32.78;31.43;95025.38;5048228;28;20192;-66
2022/07/25 09:20:57;;;;;;;1.13;1.03;;;;;;;33.61;29.71;95016.47;5049603;28;20200;-66
2022/07/25 09:23:30;;;;;;;0.80;0.80;;;;;;;33.77;29.83;95019.44;5010804;28;20229;-66
2022/07/25 09:26:16;;;;;;;0.73;0.73;;;;;;;33.66;29.64;95010.59;5033346;28;20200;-66
2022/07/25 09:28:52;;;;;;;0.70;0.70;;;;;;;33.85;28.35;95009.28;5010056;28;20655;-65
2022/07/25 09:31:18;;;;;;;0.70;0.70;;;;;;;32.92;28.69;95015.63;5009837;28;20582;-67
2022/07/25 09:33:47;;;;;;;1.03;0.77;;;;;;;33.07;29.19;95006.28;5037191;28;20221;-66
2022/07/25 09:36:14;;;;;;;1.80;1.67;;;;;;;33.08;30.07;95005.91;5009905;28;20208;-67
2022/07/25 09:38:56;;;;;;;1.20;1.10;;;;;;;33.44;28.94;95023.53;5037658;28;20207;-64
2022/07/25 09:41:33;;;;;;;3.40;1.60;;;;;;;33.26;28.71;95005.78;5022002;28;20247;-66
2022/07/25 09:44:00;;;;;;;1.40;1.30;;;;;;;33.39;28.02;95006.88;5016048;28;20197;-67
2022/07/25 09:46:31;;;;;;;0.87;0.87;;;;;;;33.29;28.81;94999.56;5041760;28;20205;-64
2022/07/25 09:48:59;;;;;;;0.30;0.30;;;;;;;33.99;28.46;95009.97;5021316;28;20200;-67
2022/07/25 09:51:27;;;;;;;0.63;0.60;;;;;;;33.42;28.54;95000.63;5037511;28;20205;-67
2022/07/25 09:53:54;;;;;;;1.97;1.40;;;;;;;33.55;27.80;95007.97;5041586;28;20236;-66
2022/07/25 09:56:39;;;;;;;1.27;0.93;;;;;;;33.47;28.70;95011.09;5017225;28;20704;-68
2022/07/25 09:59:06;;;;;;;2.90;1.20;;;;;;;33.39;28.21;95006.88;5009633;28;20193;-68
2022/07/25 10:01:41;;;;;;;0.90;0.90;;;;;;;33.01;27.78;95005.16;5022746;28;20251;-66
2022/07/25 10:04:14;;;;;;;1.13;1.13;;;;;;;33.98;28.57;95002.97;5016384;28;20664;-64
2022/07/25 10:06:55;;;;;;;1.23;1.17;;;;;;;34.38;26.91;95004.19;5019203;28;20196;-66
2022/07/25 10:09:22;;;;;;;0.73;0.73;;;;;;;34.35;26.84;95000.31;5014522;28;20194;-67
2022/07/25 10:12:06;;;;;;;2.07;1.50;;;;;;;34.68;26.64;94985.97;5038414;28;20197;-66
2022/07/25 10:14:35;;;;;;;0.80;0.80;;;;;;;35.01;25.44;94991.81;5027856;28;20770;-64
2022/07/25 10:17:03;;;;;;;0.60;0.60;;;;;;;34.51;24.32;94986.94;5024528;28;20268;-68
2022/07/25 10:19:45;;;;;;;0.70;0.70;;;;;;;35.01;25.28;94995.31;5026511;28;20316;-64
2022/07/25 10:22:19;;;;;;;1.60;0.83;;;;;;;35.38;25.32;94978.06;5042393;28;20193;-65
2022/07/25 10:25:15;;;;;;;1.73;1.63;;;;;;;35.02;24.18;94985.94;5032304;28;20201;-69
2022/07/25 10:27:47;;;;;;;1.40;0.73;;;;;;;35.06;24.58;94983.19;5043767;28;20264;-64
2022/07/25 10:30:25;;;;;;;0.90;0.90;;;;;;;34.74;25.61;94989.78;5042415;28;20716;-66
2022/07/25 10:32:57;;;;;;;1.50;1.30;;;;;;;34.50;27.42;94971.81;5024433;28;20861;-66
2022/07/25 10:35:26;;;;;;;0.77;0.77;;;;;;;35.30;26.57;94976.63;5040276;28;20652;-64
2022/07/25 10:37:55;;;;;;;0.80;0.80;;;;;;;35.41;24.75;94977.25;5034469;28;20196;-63
2022/07/25 10:40:39;;;;;;;0.73;0.70;;;;;;;35.65;24.01;94959.78;5047567;28;20197;-66
2022/07/25 10:43:08;;;;;;;0.63;0.47;;;;;;;34.77;24.70;94971.06;5044275;28;20633;-64
2022/07/25 10:45:47;;;;;;;0.80;0.80;;;;;;;35.24;25.16;94968.13;5027190;28;20197;-65
2022/07/25 10:48:25;;;;;;;2.70;1.60;;;;;;;35.19;24.73;94971.34;5024647;28;20199;-66
2022/07/25 10:50:58;;;;;;;0.60;0.60;;;;;;;35.13;24.80;94972.22;5031472;28;20212;-65
2022/07/25 10:53:32;;;;;;;0.77;0.73;;;;;;;34.97;24.75;94972.03;5045219;28;20205;-67
2022/07/25 10:56:12;;;;;;;1.07;0.97;;;;;;;34.83;24.66;94966.72;5033139;28;20197;-68
2022/07/25 10:58:44;;;;;;;0.80;0.80;;;;;;;35.22;25.40;94969.75;5028857;28;20615;-68
2022/07/25 11:01:15;;;;;;;0.57;0.57;;;;;;;35.60;24.27;94963.72;5041777;28;20291;-68
2022/07/25 11:03:45;;;;;;;0.73;0.73;;;;;;;35.58;23.18;94959.88;5049774;28;20343;-69
2022/07/25 11:06:14;;;;;;;0.70;0.70;;;;;;;35.19;23.04;94956.94;5051267;28;20204;-66
2022/07/25 11:08:42;;;;;;;0.53;0.53;;;;;;;35.24;24.01;94951.78;5032859;28;20252;-68
2022/07/25 11:11:10;;;;;;;1.37;1.13;;;;;;;36.02;22.77;94956.84;5042362;28;20235;-68
2022/07/25 11:13:40;;;;;;;1.43;1.03;;;;;;;35.57;22.62;94942.75;5049521;28;20212;-65
2022/07/25 11:16:08;;;;;;;0.50;0.50;;;;;;;35.76;23.54;94944.00;5036385;28;20205;-68
2022/07/25 11:18:40;;;;;;;0.80;0.80;;;;;;;36.22;22.56;94943.22;5037840;28;20207;-67
2022/07/25 11:21:08;;;;;;;0.63;0.63;;;;;;;36.42;23.07;94941.31;5037781;28;20204;-66
2022/07/25 11:23:35;;;;;;;1.30;1.13;;;;;;;35.99;22.52;94941.28;5022798;28;20201;-67
2022/07/25 11:26:10;;;;;;;0.93;0.77;;;;;;;36.03;22.48;94941.22;5026814;28;20205;-67
2022/07/25 11:28:43;;;;;;;0.70;0.70;;;;;;;35.84;22.82;94933.75;5044510;28;21016;-67
2022/07/25 11:31:11;;;;;;;1.03;0.93;;;;;;;35.53;22.78;94935.81;5018631;28;20212;-64
2022/07/25 11:33:38;;;;;;;1.20;1.10;;;;;;;35.22;23.16;94939.78;5043273;28;20228;-68
2022/07/25 11:36:07;;;;;;;0.83;0.83;;;;;;;35.56;22.72;94937.72;5041499;28;21014;-67
2022/07/25 11:38:35;;;;;;;0.33;0.30;;;;;;;35.58;22.94;94932.63;5050751;28;20604;-68
2022/07/25 11:41:02;;;;;;;0.63;0.57;;;;;;;36.05;22.52;94917.81;5039572;28;20583;-65
2022/07/25 11:43:29;;;;;;;0.80;0.80;;;;;;;36.14;21.13;94920.75;5029094;28;20628;-67